Time;durP1;ratioP1;P1;durP2;ratioP2;P2;SDS_P1;SDS_P2;PMS_P1;PMS_P2;Temp;Humidity;BMP_temperature;BMP_pressure;BME280_temperature;BME280_humidity;BME280_pressure;Samples;Min_cycle;Max_cycle;Signal;HPM_P1;HPM_P2
2022/04/28 00:01:13;;;;;;;9.63;3.10;;;;;;;;;;5028610;28;20049;-58
2022/04/28 00:03:39;;;;;;;11.50;3.67;;;;;;;;;;5028209;28;20050;-58
2022/04/28 00:06:05;;;;;;;8.70;2.75;;;;;;;;;;5010786;28;20105;-58
2022/04/28 00:08:32;;;;;;;8.90;3.40;;;;;;;;;;5028215;28;20105;-59
2022/04/28 00:10:58;;;;;;;9.25;3.22;;;;;;;;;;5010642;28;20049;-58
2022/04/28 00:13:26;;;;;;;9.85;3.35;;;;;;;;;;5027784;28;20077;-59
2022/04/28 00:15:53;;;;;;;12.55;3.22;;;;;;;;;;5028159;28;20081;-59
2022/04/28 00:18:19;;;;;;;13.90;3.25;;;;;;;;;;5028121;28;20057;-58
2022/04/28 00:20:45;;;;;;;10.35;3.67;;;;;;;;;;5028055;28;20054;-58
2022/04/28 00:23:11;;;;;;;20.20;4.97;;;;;;;;;;5027867;28;20081;-59
2022/04/28 00:25:37;;;;;;;13.13;3.40;;;;;;;;;;5027674;28;20060;-58
2022/04/28 00:28:03;;;;;;;16.50;3.75;;;;;;;;;;5027807;28;20080;-59
2022/04/28 00:30:29;;;;;;;12.68;4.30;;;;;;;;;;5027943;28;20046;-59
2022/04/28 00:32:55;;;;;;;13.88;4.63;;;;;;;;;;5027650;28;20121;-59
2022/04/28 00:35:22;;;;;;;9.32;3.33;;;;;;;;;;5010123;28;20109;-58
2022/04/28 00:37:48;;;;;;;17.38;5.20;;;;;;;;;;5027573;28;20053;-59
2022/04/28 00:40:14;;;;;;;13.43;3.70;;;;;;;;;;5027516;28;20511;-59
2022/04/28 00:42:40;;;;;;;7.10;2.85;;;;;;;;;;5027501;28;20042;-59
2022/04/28 00:45:06;;;;;;;8.82;3.95;;;;;;;;;;5026914;28;20066;-59
2022/04/28 00:53:03;;;;;;;9.80;4.07;;;;;;;;;;5027320;28;20149;-59
2022/04/28 00:55:29;;;;;;;9.30;3.90;;;;;;;;;;5027048;28;20045;-59
2022/04/28 00:57:56;;;;;;;10.55;3.78;;;;;;;;;;5026788;28;20453;-59
2022/04/28 01:00:22;;;;;;;14.02;4.43;;;;;;;;;;5027166;28;20046;-59
2022/04/28 01:02:48;;;;;;;9.57;3.67;;;;;;;;;;5026832;28;20397;-59
2022/04/28 01:05:14;;;;;;;10.45;4.15;;;;;;;;;;5008518;28;20192;-59
2022/04/28 01:07:41;;;;;;;11.13;3.35;;;;;;;;;;5026765;28;20531;-60
2022/04/28 01:10:07;;;;;;;10.40;4.13;;;;;;;;;;5008976;28;20049;-59
2022/04/28 01:12:33;;;;;;;13.27;4.22;;;;;;;;;;5026813;28;20041;-60
2022/04/28 01:14:59;;;;;;;10.25;4.10;;;;;;;;;;5026360;28;20521;-59
2022/04/28 01:17:25;;;;;;;12.10;4.05;;;;;;;;;;5026538;28;20077;-60
2022/04/28 01:19:51;;;;;;;16.23;4.15;;;;;;;;;;5026638;28;20041;-58
2022/04/28 01:22:17;;;;;;;10.90;3.47;;;;;;;;;;5026546;28;20050;-58
2022/04/28 01:24:43;;;;;;;12.73;4.28;;;;;;;;;;5026248;28;20486;-58
2022/04/28 01:27:10;;;;;;;13.13;3.60;;;;;;;;;;5026332;28;20049;-58
2022/04/28 01:29:36;;;;;;;14.65;3.65;;;;;;;;;;5026265;28;20048;-58
2022/04/28 01:32:02;;;;;;;11.70;4.55;;;;;;;;;;5026432;28;20077;-58
2022/04/28 01:34:28;;;;;;;14.90;3.83;;;;;;;;;;5026137;28;20520;-59
2022/04/28 01:36:55;;;;;;;11.20;4.50;;;;;;;;;;5026239;28;20046;-59
2022/04/28 01:39:21;;;;;;;9.63;4.40;;;;;;;;;;5026080;28;20042;-59
2022/04/28 01:41:50;;;;;;;13.55;5.55;;;;;;;;;;5026151;28;20053;-58
2022/04/28 01:44:16;;;;;;;15.52;4.70;;;;;;;;;;5025452;28;20113;-58
2022/04/28 01:46:44;;;;;;;11.88;3.95;;;;;;;;;;5008552;28;20069;-59
2022/04/28 01:49:10;;;;;;;11.03;4.00;;;;;;;;;;5025980;28;20065;-59
2022/04/28 01:57:06;;;;;;;13.18;4.25;;;;;;;;;;5025902;28;20159;-58
2022/04/28 01:59:33;;;;;;;12.18;3.58;;;;;;;;;;5025563;28;20046;-58
2022/04/28 02:01:59;;;;;;;17.67;5.15;;;;;;;;;;5025671;28;20046;-59
2022/04/28 02:04:25;;;;;;;13.68;4.63;;;;;;;;;;5008138;28;20109;-58
2022/04/28 02:06:51;;;;;;;12.43;3.88;;;;;;;;;;5025639;28;20038;-59
2022/04/28 02:09:17;;;;;;;13.98;3.97;;;;;;;;;;5025318;28;20056;-59
2022/04/28 02:11:43;;;;;;;8.85;3.90;;;;;;;;;;5025617;28;20042;-58
2022/04/28 02:14:09;;;;;;;21.27;3.95;;;;;;;;;;5025514;28;20042;-58
2022/04/28 02:16:35;;;;;;;16.52;3.88;;;;;;;;;;5024928;28;20038;-58
2022/04/28 02:19:02;;;;;;;17.83;4.32;;;;;;;;;;5025747;28;20038;-58
2022/04/28 02:21:28;;;;;;;6.97;3.60;;;;;;;;;;5025421;28;20129;-58
2022/04/28 02:23:54;;;;;;;14.95;4.03;;;;;;;;;;5024952;28;20181;-59
2022/04/28 02:26:20;;;;;;;12.32;4.05;;;;;;;;;;5007766;28;20106;-58
2022/04/28 02:28:46;;;;;;;12.73;3.50;;;;;;;;;;5025356;28;20073;-59
2022/04/28 02:31:12;;;;;;;9.07;3.30;;;;;;;;;;5025467;28;20049;-58
2022/04/28 02:33:38;;;;;;;10.70;4.05;;;;;;;;;;5025176;28;20050;-58
2022/04/28 02:36:05;;;;;;;11.32;4.15;;;;;;;;;;5024576;28;20140;-59
2022/04/28 02:38:31;;;;;;;14.60;4.40;;;;;;;;;;5007545;28;20081;-59
2022/04/28 02:40:57;;;;;;;16.15;4.25;;;;;;;;;;5024951;28;20097;-58
2022/04/28 02:43:23;;;;;;;9.82;3.50;;;;;;;;;;5024887;28;20084;-59
2022/04/28 02:45:49;;;;;;;12.70;4.13;;;;;;;;;;5024608;28;20090;-58
2022/04/28 02:48:15;;;;;;;16.25;4.13;;;;;;;;;;5024796;28;20053;-59
2022/04/28 02:50:41;;;;;;;12.38;3.75;;;;;;;;;;5024966;28;20049;-60
2022/04/28 02:53:08;;;;;;;12.15;3.70;;;;;;;;;;5025019;28;20050;-59
2022/04/28 02:55:34;;;;;;;9.88;3.30;;;;;;;;;;5024443;28;20056;-58
2022/04/28 02:58:00;;;;;;;14.65;4.22;;;;;;;;;;5007504;28;20125;-58
2022/04/28 03:00:26;;;;;;;11.55;3.83;;;;;;;;;;5006787;28;20321;-59
2022/04/28 03:02:52;;;;;;;9.82;4.05;;;;;;;;;;5005042;28;20100;-58
2022/04/28 03:05:18;;;;;;;8.02;3.75;;;;;;;;;;4998092;28;20509;-59
2022/04/28 03:10:53;;;;;;;10.05;3.90;;;;;;;;;;5024445;28;20053;-59
2022/04/28 03:13:20;;;;;;;9.43;4.60;;;;;;;;;;5024800;28;20092;-58
2022/04/28 03:15:47;;;;;;;16.13;4.70;;;;;;;;;;5024635;28;20128;-59
2022/04/28 03:18:13;;;;;;;10.95;4.10;;;;;;;;;;5006908;28;20056;-58
2022/04/28 03:20:40;;;;;;;8.02;3.90;;;;;;;;;;5024731;28;20041;-58
2022/04/28 03:23:06;;;;;;;8.43;4.18;;;;;;;;;;5024613;28;20041;-59
2022/04/28 03:25:32;;;;;;;11.52;4.35;;;;;;;;;;5024043;28;20042;-59
2022/04/28 03:27:58;;;;;;;14.02;3.90;;;;;;;;;;5027227;28;20073;-59
2022/04/28 03:30:24;;;;;;;10.93;4.32;;;;;;;;;;5010982;28;20136;-58
2022/04/28 03:32:51;;;;;;;12.02;4.50;;;;;;;;;;5028536;28;20042;-58
2022/04/28 03:35:17;;;;;;;20.35;5.15;;;;;;;;;;5028286;28;20053;-58
2022/04/28 03:37:49;;;;;;;9.45;4.20;;;;;;;;;;5028452;28;20042;-58
2022/04/28 03:40:16;;;;;;;12.48;4.32;;;;;;;;;;5028113;28;20057;-59
2022/04/28 03:42:42;;;;;;;9.75;5.28;;;;;;;;;;5028382;28;20125;-59
2022/04/28 03:45:09;;;;;;;10.45;4.63;;;;;;;;;;5028042;28;20089;-59
2022/04/28 03:47:38;;;;;;;9.50;4.00;;;;;;;;;;5028417;28;20042;-59
2022/04/28 03:50:05;;;;;;;10.85;4.93;;;;;;;;;;5028195;28;20092;-59
2022/04/28 03:52:31;;;;;;;8.15;4.32;;;;;;;;;;5028276;28;20057;-59
2022/04/28 03:54:57;;;;;;;12.07;4.90;;;;;;;;;;5027741;28;20053;-59
2022/04/28 03:57:23;;;;;;;9.25;4.15;;;;;;;;;;5028255;28;20048;-59
2022/04/28 03:59:49;;;;;;;9.73;3.97;;;;;;;;;;5028086;28;20416;-58
2022/04/28 04:02:16;;;;;;;11.98;5.03;;;;;;;;;;5027955;28;20047;-58
2022/04/28 04:04:42;;;;;;;11.07;4.90;;;;;;;;;;5010090;28;20050;-58
2022/04/28 04:07:08;;;;;;;8.30;4.40;;;;;;;;;;5027791;28;20050;-58
2022/04/28 04:09:34;;;;;;;11.32;4.82;;;;;;;;;;5027719;28;20041;-59
2022/04/28 04:12:00;;;;;;;9.30;5.07;;;;;;;;;;5027955;28;20057;-59
2022/04/28 04:14:27;;;;;;;8.40;5.20;;;;;;;;;;5027584;28;20046;-59
2022/04/28 04:16:53;;;;;;;12.23;6.30;;;;;;;;;;5027862;28;20046;-58
2022/04/28 04:19:19;;;;;;;16.08;5.60;;;;;;;;;;5027905;28;20044;-59
2022/04/28 04:21:45;;;;;;;15.98;4.90;;;;;;;;;;5027233;28;20513;-58
2022/04/28 04:24:11;;;;;;;12.88;6.22;;;;;;;;;;5027706;28;20050;-59
2022/04/28 04:26:37;;;;;;;11.98;5.70;;;;;;;;;;5027737;28;20464;-59
2022/04/28 04:29:03;;;;;;;11.93;5.32;;;;;;;;;;5027479;28;20050;-59
2022/04/28 04:34:14;;;;;;;12.52;5.30;;;;;;;;;;5027368;28;20061;-58
2022/04/28 04:36:40;;;;;;;12.88;4.78;;;;;;;;;;5027346;28;20064;-59
2022/04/28 04:39:07;;;;;;;15.40;5.80;;;;;;;;;;5027108;28;20050;-59
2022/04/28 04:41:33;;;;;;;13.80;6.25;;;;;;;;;;5009491;28;20081;-58
2022/04/28 04:43:59;;;;;;;12.60;6.28;;;;;;;;;;5024816;28;20064;-58
2022/04/28 04:46:25;;;;;;;15.93;5.68;;;;;;;;;;5027461;28;20049;-59
2022/04/28 04:48:51;;;;;;;13.70;5.78;;;;;;;;;;5027274;28;20056;-58
2022/04/28 04:51:17;;;;;;;13.65;5.10;;;;;;;;;;5026633;28;20064;-58
2022/04/28 04:53:43;;;;;;;10.38;5.18;;;;;;;;;;5027107;28;20042;-59
2022/04/28 04:56:09;;;;;;;12.88;5.20;;;;;;;;;;5026916;28;20105;-59
2022/04/28 04:58:35;;;;;;;13.88;4.80;;;;;;;;;;5027175;28;20069;-58
2022/04/28 05:01:01;;;;;;;19.40;5.38;;;;;;;;;;5026661;28;20056;-58
2022/04/28 05:03:28;;;;;;;14.23;5.80;;;;;;;;;;5026792;28;20056;-59
2022/04/28 05:05:54;;;;;;;18.02;4.95;;;;;;;;;;5026872;28;20046;-59
2022/04/28 05:08:20;;;;;;;16.08;5.18;;;;;;;;;;5026771;28;20049;-59
2022/04/28 05:10:46;;;;;;;19.55;4.65;;;;;;;;;;5026224;28;20462;-58
2022/04/28 05:13:12;;;;;;;19.88;5.40;;;;;;;;;;5026790;28;20105;-59
2022/04/28 05:15:38;;;;;;;22.38;4.93;;;;;;;;;;5026738;28;20045;-59
2022/04/28 05:18:04;;;;;;;15.95;4.97;;;;;;;;;;5026736;28;20056;-59
2022/04/28 05:20:31;;;;;;;19.15;4.93;;;;;;;;;;5026349;28;20120;-58
2022/04/28 05:22:57;;;;;;;15.88;5.35;;;;;;;;;;5026464;28;20073;-58
2022/04/28 05:25:23;;;;;;;18.30;5.05;;;;;;;;;;5026307;28;20062;-58
2022/04/28 05:27:49;;;;;;;13.93;5.28;;;;;;;;;;5026739;28;20480;-58
2022/04/28 05:30:15;;;;;;;15.48;4.82;;;;;;;;;;5023724;28;20042;-60
2022/04/28 05:32:41;;;;;;;14.85;5.47;;;;;;;;;;5004461;28;20038;-58
2022/04/28 05:35:08;;;;;;;16.13;5.05;;;;;;;;;;5022569;28;20388;-58
2022/04/28 05:37:35;;;;;;;14.02;4.68;;;;;;;;;;5045997;28;20074;-58
2022/04/28 05:40:01;;;;;;;15.20;4.20;;;;;;;;;;5021099;28;20136;-60
2022/04/28 05:45:41;;;;;;;10.57;4.40;;;;;;;;;;5017455;28;20046;-58
2022/04/28 05:47:58;;;;;;;14.30;4.28;;;;;;;;;;5026481;28;20467;-59
2022/04/28 05:50:26;;;;;;;12.75;4.07;;;;;;;;;;5037882;28;20121;-58
2022/04/28 05:52:52;;;;;;;15.63;4.80;;;;;;;;;;5024653;28;20074;-59
2022/04/28 05:55:18;;;;;;;8.38;3.92;;;;;;;;;;5030575;28;20105;-58
2022/04/28 05:57:44;;;;;;;11.88;4.28;;;;;;;;;;5046112;28;20056;-58
2022/04/28 06:00:10;;;;;;;13.77;4.80;;;;;;;;;;5026655;28;20117;-58
2022/04/28 06:02:37;;;;;;;13.27;3.70;;;;;;;;;;5027326;28;20109;-57
2022/04/28 06:05:03;;;;;;;8.82;3.65;;;;;;;;;;5022119;28;20037;-59
2022/04/28 06:07:30;;;;;;;13.15;4.38;;;;;;;;;;5026547;28;20053;-58
2022/04/28 06:09:56;;;;;;;13.50;4.05;;;;;;;;;;5037645;28;20101;-59
2022/04/28 06:12:24;;;;;;;17.20;3.40;;;;;;;;;;5043723;28;20062;-58
2022/04/28 06:14:50;;;;;;;10.65;4.00;;;;;;;;;;5009766;28;20519;-59
2022/04/28 06:17:16;;;;;;;14.05;3.35;;;;;;;;;;5024276;28;20037;-59
2022/04/28 06:19:45;;;;;;;10.20;3.63;;;;;;;;;;5027054;28;20051;-58
2022/04/28 06:22:11;;;;;;;15.60;3.35;;;;;;;;;;5028151;28;20052;-59
2022/04/28 06:24:37;;;;;;;12.50;2.83;;;;;;;;;;5024878;28;20045;-59
2022/04/28 06:27:04;;;;;;;10.38;2.25;;;;;;;;;;5025317;28;21449;-58
2022/04/28 06:29:30;;;;;;;8.70;2.40;;;;;;;;;;5021065;28;20045;-58
2022/04/28 06:31:56;;;;;;;7.53;1.80;;;;;;;;;;5023652;28;20125;-58
2022/04/28 06:34:22;;;;;;;4.47;2.05;;;;;;;;;;5024867;28;20048;-58
2022/04/28 06:36:48;;;;;;;7.30;1.90;;;;;;;;;;5022914;28;20057;-58
2022/04/28 06:39:14;;;;;;;12.50;2.42;;;;;;;;;;5025341;28;20041;-59
2022/04/28 06:41:40;;;;;;;7.53;2.10;;;;;;;;;;5009014;28;20064;-58
2022/04/28 06:44:07;;;;;;;7.35;1.67;;;;;;;;;;5026988;28;20063;-59
2022/04/28 06:46:33;;;;;;;7.95;2.13;;;;;;;;;;5024027;28;20179;-61
2022/04/28 06:48:59;;;;;;;4.93;1.55;;;;;;;;;;5023685;28;20105;-58
2022/04/28 06:51:25;;;;;;;8.20;2.00;;;;;;;;;;5024876;28;20050;-59
2022/04/28 06:53:52;;;;;;;15.95;2.30;;;;;;;;;;5006222;28;20061;-59
2022/04/28 06:56:18;;;;;;;13.40;3.47;;;;;;;;;;5023908;28;20049;-59
2022/04/28 06:58:44;;;;;;;11.68;2.17;;;;;;;;;;5025370;28;20056;-59
2022/04/28 07:01:10;;;;;;;11.00;1.77;;;;;;;;;;5026708;28;20095;-59
2022/04/28 07:03:40;;;;;;;14.88;2.05;;;;;;;;;;5026007;28;20286;-58
2022/04/28 07:06:06;;;;;;;8.73;2.75;;;;;;;;;;5028232;28;20300;-58
2022/04/28 07:08:32;;;;;;;9.57;2.60;;;;;;;;;;5042314;28;20076;-58
2022/04/28 07:10:58;;;;;;;4.18;1.08;;;;;;;;;;5023095;28;20111;-59
2022/04/28 07:13:25;;;;;;;11.15;2.08;;;;;;;;;;5024159;28;20080;-59
2022/04/28 07:15:51;;;;;;;7.43;1.95;;;;;;;;;;5035693;28;20045;-59
2022/04/28 07:18:17;;;;;;;18.58;2.38;;;;;;;;;;5013084;28;20067;-59
2022/04/28 07:20:46;;;;;;;9.55;2.15;;;;;;;;;;5025188;28;20045;-59
2022/04/28 07:23:13;;;;;;;18.27;2.10;;;;;;;;;;5042543;28;20424;-58
2022/04/28 07:25:42;;;;;;;12.30;2.38;;;;;;;;;;5034178;28;20041;-60
2022/04/28 07:28:08;;;;;;;13.90;2.05;;;;;;;;;;5044341;28;20636;-58
2022/04/28 07:30:34;;;;;;;8.48;1.73;;;;;;;;;;5026914;28;20092;-60
2022/04/28 07:33:01;;;;;;;8.07;1.73;;;;;;;;;;5033036;28;20045;-58
2022/04/28 07:35:27;;;;;;;13.20;2.25;;;;;;;;;;5036559;28;20133;-58
2022/04/28 07:37:53;;;;;;;6.35;1.40;;;;;;;;;;5023283;28;20046;-59
2022/04/28 07:40:19;;;;;;;8.48;1.70;;;;;;;;;;5012069;28;20045;-59
2022/04/28 07:42:46;;;;;;;8.75;2.03;;;;;;;;;;5024341;28;20050;-58
2022/04/28 07:45:12;;;;;;;7.13;1.55;;;;;;;;;;5009850;28;20109;-58
2022/04/28 07:47:38;;;;;;;11.00;2.40;;;;;;;;;;5024173;28;20042;-59
2022/04/28 07:50:04;;;;;;;7.88;1.60;;;;;;;;;;5028667;28;20046;-58
2022/04/28 07:52:31;;;;;;;8.27;1.48;;;;;;;;;;5021849;28;20409;-59
2022/04/28 07:54:57;;;;;;;6.47;1.65;;;;;;;;;;5021584;28;20113;-59
2022/04/28 07:57:23;;;;;;;6.70;1.60;;;;;;;;;;5027764;28;20085;-59
2022/04/28 07:59:50;;;;;;;7.00;1.65;;;;;;;;;;5026582;28;20038;-59
2022/04/28 08:02:16;;;;;;;10.15;1.80;;;;;;;;;;5025275;28;20052;-59
2022/04/28 08:04:43;;;;;;;7.20;2.00;;;;;;;;;;5015458;28;20062;-59
2022/04/28 08:07:09;;;;;;;8.10;2.28;;;;;;;;;;5014421;28;20062;-59
2022/04/28 08:09:35;;;;;;;6.63;2.35;;;;;;;;;;5022248;28;20041;-58
2022/04/28 08:12:02;;;;;;;8.60;1.88;;;;;;;;;;5020072;28;20121;-59
2022/04/28 08:14:28;;;;;;;14.48;2.55;;;;;;;;;;5015733;28;20092;-60
2022/04/28 08:16:55;;;;;;;12.15;1.70;;;;;;;;;;5006782;28;20042;-58
2022/04/28 08:19:21;;;;;;;11.30;2.23;;;;;;;;;;5033605;28;20052;-59
2022/04/28 08:21:48;;;;;;;13.55;2.97;;;;;;;;;;5028585;28;20102;-58
2022/04/28 08:24:14;;;;;;;6.47;2.80;;;;;;;;;;5027558;28;20401;-59
2022/04/28 08:26:41;;;;;;;8.98;2.25;;;;;;;;;;5029879;28;20438;-58
2022/04/28 08:29:07;;;;;;;14.43;2.42;;;;;;;;;;5027789;28;20402;-58
2022/04/28 08:31:34;;;;;;;12.35;2.85;;;;;;;;;;5024452;28;20049;-58
2022/04/28 08:34:00;;;;;;;8.52;2.65;;;;;;;;;;5027146;28;20102;-59
2022/04/28 08:36:26;;;;;;;16.67;3.20;;;;;;;;;;5027073;28;20105;-59
2022/04/28 08:38:52;;;;;;;11.15;2.45;;;;;;;;;;5027468;28;20051;-59
2022/04/28 08:41:31;;;;;;;9.00;2.92;;;;;;;;;;5027310;28;20097;-58
2022/04/28 08:43:57;;;;;;;;;;;;;;;;;;5027708;28;20057;-58
2022/04/28 08:49:08;;;;;;;16.10;3.92;;;;;;;;;;5026202;28;20038;-59
2022/04/28 08:51:34;;;;;;;13.10;2.78;;;;;;;;;;5027262;28;20073;-58
2022/04/28 08:54:00;;;;;;;11.13;2.58;;;;;;;;;;5027236;28;20038;-60
2022/04/28 08:56:26;;;;;;;10.38;2.90;;;;;;;;;;5026726;28;20045;-60
2022/04/28 08:58:53;;;;;;;13.60;2.90;;;;;;;;;;5027014;28;20536;-59
2022/04/28 09:01:24;;;;;;;10.80;2.70;;;;;;;;;;5027397;28;20104;-59
2022/04/28 09:03:50;;;;;;;7.57;2.33;;;;;;;;;;5023447;28;20041;-58
2022/04/28 09:06:23;;;;;;;13.70;3.25;;;;;;;;;;5021837;28;20041;-59
2022/04/28 09:08:50;;;;;;;12.68;2.60;;;;;;;;;;5007458;28;20134;-58
2022/04/28 09:11:20;;;;;;;15.27;3.88;;;;;;;;;;5007192;28;20082;-59
2022/04/28 09:14:09;;;;;;;8.95;2.47;;;;;;;;;;5007308;28;20131;-59
2022/04/28 09:16:45;;;;;;;8.40;2.70;;;;;;;;;;5013192;28;20510;-59
2022/04/28 09:19:13;;;;;;;7.43;2.15;;;;;;;;;;5026966;28;20041;-58
2022/04/28 09:21:40;;;;;;;10.48;2.75;;;;;;;;;;5026666;28;20073;-58
2022/04/28 09:24:06;;;;;;;7.65;2.15;;;;;;;;;;5024477;28;20084;-59
2022/04/28 09:26:34;;;;;;;16.48;3.00;;;;;;;;;;5025968;28;20042;-59
2022/04/28 09:29:04;;;;;;;7.63;1.98;;;;;;;;;;5008907;28;20049;-59
2022/04/28 09:31:34;;;;;;;14.35;3.10;;;;;;;;;;5026327;28;20535;-58
2022/04/28 09:34:07;;;;;;;11.82;2.70;;;;;;;;;;5026220;28;20507;-59
2022/04/28 09:36:33;;;;;;;11.30;2.45;;;;;;;;;;5026122;28;20057;-59
2022/04/28 09:38:59;;;;;;;9.98;2.70;;;;;;;;;;5026496;28;20045;-59
2022/04/28 09:44:13;;;;;;;11.48;2.60;;;;;;;;;;5010104;28;20106;-59
2022/04/28 09:46:44;;;;;;;14.45;2.33;;;;;;;;;;5011086;28;20062;-58
2022/04/28 09:49:11;;;;;;;14.20;2.63;;;;;;;;;;5026278;28;20061;-58
2022/04/28 09:51:40;;;;;;;13.00;2.47;;;;;;;;;;5026378;28;20113;-59
2022/04/28 09:54:08;;;;;;;14.55;3.22;;;;;;;;;;5026317;28;20117;-60
2022/04/28 09:56:36;;;;;;;12.48;3.15;;;;;;;;;;5025600;28;20060;-59
2022/04/28 09:59:05;;;;;;;12.48;2.40;;;;;;;;;;5024480;28;20069;-59
2022/04/28 10:01:31;;;;;;;12.02;2.40;;;;;;;;;;5023730;28;20045;-58
2022/04/28 10:03:58;;;;;;;13.48;2.47;;;;;;;;;;5025663;28;20050;-59
2022/04/28 10:06:25;;;;;;;9.35;2.17;;;;;;;;;;5025904;28;20046;-59
2022/04/28 10:08:56;;;;;;;16.42;2.20;;;;;;;;;;5025401;28;20065;-59
2022/04/28 10:11:23;;;;;;;14.60;2.65;;;;;;;;;;5025717;28;20053;-58
2022/04/28 10:13:50;;;;;;;12.23;2.53;;;;;;;;;;5026048;28;20102;-59
2022/04/28 10:16:17;;;;;;;13.48;2.35;;;;;;;;;;5022479;28;20041;-59
2022/04/28 10:18:46;;;;;;;13.48;3.15;;;;;;;;;;5025414;28;20046;-59
2022/04/28 10:21:14;;;;;;;14.90;2.65;;;;;;;;;;5025692;28;20053;-59
2022/04/28 10:35:08;;;;;;;10.60;2.05;;;;;;;;;;5021238;28;20084;-58
2022/04/28 10:37:36;;;;;;;13.35;2.83;;;;;;;;;;5015804;28;20053;-58
2022/04/28 10:40:03;;;;;;;10.27;2.17;;;;;;;;;;5003458;28;20046;-59
2022/04/28 10:42:30;;;;;;;18.25;3.42;;;;;;;;;;5021218;28;20052;-59
2022/04/28 10:45:04;;;;;;;10.07;2.38;;;;;;;;;;5019801;28;20058;-59
2022/04/28 10:47:30;;;;;;;10.82;2.10;;;;;;;;;;5009880;28;20069;-59
2022/04/28 10:49:57;;;;;;;9.75;2.22;;;;;;;;;;5017641;28;20062;-59
2022/04/28 10:52:25;;;;;;;12.25;2.17;;;;;;;;;;5022288;28;20046;-58
2022/04/28 10:54:52;;;;;;;10.27;1.92;;;;;;;;;;5019085;28;20077;-59
2022/04/28 10:57:19;;;;;;;12.20;2.60;;;;;;;;;;5008141;28;20064;-59
2022/04/28 10:59:49;;;;;;;14.30;2.85;;;;;;;;;;5013392;28;20043;-58
2022/04/28 11:02:37;;;;;;;14.10;3.08;;;;;;;;;;5006856;28;20137;-59
2022/04/28 11:05:23;;;;;;;8.23;2.25;;;;;;;;;;5005421;28;20077;-60
2022/04/28 11:07:49;;;;;;;6.35;1.40;;;;;;;;;;5013585;28;20053;-59
2022/04/28 11:10:15;;;;;;;9.98;2.20;;;;;;;;;;5006544;28;20052;-59
2022/04/28 11:12:42;;;;;;;6.93;1.85;;;;;;;;;;5015936;28;20049;-59
2022/04/28 11:15:13;;;;;;;8.07;1.77;;;;;;;;;;5021575;28;20115;-59
2022/04/28 11:17:41;;;;;;;14.88;2.20;;;;;;;;;;5014995;28;20065;-59
2022/04/28 11:20:12;;;;;;;10.18;2.53;;;;;;;;;;5012937;28;20038;-59
2022/04/28 11:22:46;;;;;;;8.90;2.08;;;;;;;;;;5015229;28;20092;-58
2022/04/28 11:25:16;;;;;;;8.90;2.13;;;;;;;;;;5020095;28;20106;-59
2022/04/28 11:27:43;;;;;;;10.45;1.90;;;;;;;;;;5022485;28;20113;-58
2022/04/28 11:30:13;;;;;;;10.30;2.22;;;;;;;;;;5006772;28;20077;-59
2022/04/28 11:32:51;;;;;;;11.93;2.83;;;;;;;;;;5007643;28;20480;-58
2022/04/28 11:35:18;;;;;;;8.80;2.08;;;;;;;;;;5022764;28;20077;-58
2022/04/28 11:37:45;;;;;;;11.17;2.67;;;;;;;;;;5024607;28;20094;-59
2022/04/28 11:40:16;;;;;;;14.65;2.70;;;;;;;;;;5024463;28;20053;-59
2022/04/28 11:42:43;;;;;;;10.50;2.00;;;;;;;;;;5024585;28;20129;-59
2022/04/28 11:45:09;;;;;;;9.82;2.47;;;;;;;;;;5024057;28;20058;-59
2022/04/28 11:47:44;;;;;;;10.00;2.47;;;;;;;;;;5025014;28;20061;-58
2022/04/28 11:50:18;;;;;;;8.48;1.85;;;;;;;;;;5025797;28;20070;-58
2022/04/28 11:52:44;;;;;;;10.13;1.90;;;;;;;;;;5024006;28;20054;-58
2022/04/28 11:55:12;;;;;;;7.22;2.00;;;;;;;;;;5030995;28;20712;-59
2022/04/28 11:57:41;;;;;;;9.70;2.78;;;;;;;;;;5025858;28;20105;-59
2022/04/28 12:00:08;;;;;;;10.60;1.73;;;;;;;;;;5027505;28;20046;-59
2022/04/28 12:02:35;;;;;;;6.78;1.67;;;;;;;;;;5007320;28;20058;-58
2022/04/28 12:05:03;;;;;;;12.15;2.40;;;;;;;;;;5023997;28;20060;-58
2022/04/28 12:07:34;;;;;;;12.10;2.25;;;;;;;;;;5007987;28;20064;-59
2022/04/28 12:15:32;;;;;;;6.85;1.98;;;;;;;;;;5019344;28;20551;-59
2022/04/28 12:20:56;;;;;;;8.95;1.95;;;;;;;;;;5026744;28;20057;-59
2022/04/28 12:23:28;;;;;;;7.65;1.50;;;;;;;;;;5027557;28;20038;-59
2022/04/28 12:25:57;;;;;;;6.05;1.75;;;;;;;;;;5004618;28;20061;-59
2022/04/28 12:28:29;;;;;;;6.05;2.00;;;;;;;;;;5010822;28;20050;-60
2022/04/28 12:30:55;;;;;;;13.02;2.55;;;;;;;;;;5021196;28;20042;-58
2022/04/28 12:33:21;;;;;;;11.38;2.35;;;;;;;;;;5020536;28;20057;-58
2022/04/28 12:35:48;;;;;;;11.10;1.98;;;;;;;;;;4997807;28;20070;-60
2022/04/28 12:38:24;;;;;;;8.20;1.77;;;;;;;;;;5010873;28;20050;-59
2022/04/28 12:40:50;;;;;;;7.45;1.67;;;;;;;;;;5006604;28;20074;-59
2022/04/28 12:43:35;;;;;;;7.95;1.80;;;;;;;;;;5008528;28;20045;-59
2022/04/28 12:46:01;;;;;;;8.68;1.80;;;;;;;;;;5016532;28;20062;-59
2022/04/28 12:48:30;;;;;;;9.45;1.85;;;;;;;;;;5017062;28;20517;-59
2022/04/28 12:51:14;;;;;;;9.05;2.33;;;;;;;;;;5018741;28;20088;-59
2022/04/28 12:53:42;;;;;;;8.80;1.67;;;;;;;;;;5021424;28;20061;-59
2022/04/28 12:56:12;;;;;;;9.82;2.22;;;;;;;;;;5024734;28;20064;-59
2022/04/28 12:58:42;;;;;;;5.85;1.80;;;;;;;;;;5020797;28;20041;-59
2022/04/28 13:01:09;;;;;;;10.40;2.40;;;;;;;;;;5019828;28;20490;-58
2022/04/28 13:03:36;;;;;;;5.45;1.80;;;;;;;;;;5006122;28;20058;-58
2022/04/28 13:06:04;;;;;;;9.40;2.13;;;;;;;;;;5019995;28;20049;-59
2022/04/28 13:08:30;;;;;;;10.77;2.20;;;;;;;;;;5019351;28;20049;-59
2022/04/28 13:10:56;;;;;;;7.07;1.88;;;;;;;;;;5020459;28;20406;-59
2022/04/28 13:13:22;;;;;;;12.43;1.85;;;;;;;;;;5022740;28;20046;-59
2022/04/28 13:15:48;;;;;;;8.80;1.95;;;;;;;;;;5020109;28;20042;-58
2022/04/28 13:18:15;;;;;;;6.43;1.67;;;;;;;;;;5020077;28;20128;-59
2022/04/28 13:20:41;;;;;;;7.32;1.70;;;;;;;;;;5003718;28;20438;-59
2022/04/28 13:23:07;;;;;;;8.00;1.65;;;;;;;;;;5011842;28;20080;-59
2022/04/28 13:25:33;;;;;;;4.63;1.40;;;;;;;;;;5016710;28;20053;-59
2022/04/28 13:28:00;;;;;;;4.97;1.27;;;;;;;;;;5019872;28;20154;-58
2022/04/28 13:30:26;;;;;;;7.93;1.42;;;;;;;;;;5008706;28;20522;-58
2022/04/28 13:32:52;;;;;;;11.20;1.73;;;;;;;;;;5026672;28;20049;-59
2022/04/28 13:35:18;;;;;;;8.50;1.45;;;;;;;;;;5024373;28;20057;-59
2022/04/28 13:37:44;;;;;;;7.35;1.70;;;;;;;;;;5025804;28;20037;-59
2022/04/28 13:40:11;;;;;;;8.38;1.80;;;;;;;;;;5015748;28;20042;-58
2022/04/28 13:42:37;;;;;;;6.75;1.40;;;;;;;;;;5022930;28;20120;-59
2022/04/28 13:45:03;;;;;;;7.47;1.80;;;;;;;;;;5027109;28;20062;-59
2022/04/28 13:47:29;;;;;;;8.52;1.70;;;;;;;;;;5025315;28;20056;-59
2022/04/28 13:49:59;;;;;;;9.13;1.55;;;;;;;;;;5025317;28;20085;-58
2022/04/28 13:52:25;;;;;;;7.32;1.65;;;;;;;;;;5028413;28;20044;-61
2022/04/28 13:54:51;;;;;;;11.73;2.40;;;;;;;;;;5026856;28;20101;-59
2022/04/28 13:57:17;;;;;;;7.35;1.58;;;;;;;;;;5022746;28;20123;-59
2022/04/28 13:59:44;;;;;;;9.10;1.73;;;;;;;;;;5022583;28;20046;-58
2022/04/28 14:02:10;;;;;;;4.97;1.60;;;;;;;;;;5022494;28;20038;-59
2022/04/28 14:04:36;;;;;;;7.57;1.73;;;;;;;;;;5024916;28;20042;-59
2022/04/28 14:07:02;;;;;;;6.60;1.50;;;;;;;;;;5023667;28;20503;-59
2022/04/28 14:09:28;;;;;;;10.38;1.83;;;;;;;;;;5023233;28;20341;-59
2022/04/28 14:11:55;;;;;;;9.43;1.80;;;;;;;;;;5025041;28;20390;-59
2022/04/28 14:14:22;;;;;;;4.60;1.52;;;;;;;;;;5024605;28;20045;-58
2022/04/28 14:16:48;;;;;;;6.05;1.73;;;;;;;;;;5027505;28;20046;-59
2022/04/28 14:19:16;;;;;;;6.82;1.38;;;;;;;;;;5029825;28;20056;-59
2022/04/28 14:21:42;;;;;;;11.88;1.58;;;;;;;;;;5022331;28;20042;-59
2022/04/28 14:24:08;;;;;;;7.75;1.92;;;;;;;;;;5025439;28;20084;-59
2022/04/28 14:26:35;;;;;;;4.93;1.42;;;;;;;;;;5021750;28;20105;-59
2022/04/28 14:29:02;;;;;;;8.85;2.10;;;;;;;;;;5025371;28;20125;-59
2022/04/28 14:31:29;;;;;;;6.22;1.50;;;;;;;;;;5017102;28;20482;-63
2022/04/28 14:33:55;;;;;;;8.27;2.00;;;;;;;;;;5023925;28;20052;-59
2022/04/28 14:36:21;;;;;;;4.65;1.58;;;;;;;;;;5019239;28;20509;-58
2022/04/28 14:38:48;;;;;;;8.38;1.58;;;;;;;;;;5031581;28;20046;-58
2022/04/28 14:41:14;;;;;;;9.15;1.35;;;;;;;;;;5028289;28;20133;-58
2022/04/28 14:43:40;;;;;;;11.27;2.03;;;;;;;;;;5020095;28;20061;-59
2022/04/28 14:46:06;;;;;;;8.13;2.03;;;;;;;;;;5022619;28;20057;-58
2022/04/28 14:52:19;;;;;;;7.15;1.92;;;;;;;;;;5023802;28;20045;-58
2022/04/28 14:54:06;;;;;;;12.23;2.45;;;;;;;;;;5006008;28;20081;-59
2022/04/28 14:56:32;;;;;;;13.88;2.00;;;;;;;;;;5021887;28;20049;-59
2022/04/28 14:58:59;;;;;;;4.45;1.50;;;;;;;;;;5029415;28;20056;-58
2022/04/28 15:01:25;;;;;;;8.27;1.83;;;;;;;;;;5031766;28;20038;-60
2022/04/28 15:03:51;;;;;;;5.50;1.55;;;;;;;;;;5026358;28;20050;-60
2022/04/28 15:06:17;;;;;;;8.40;1.85;;;;;;;;;;5020036;28;20085;-59
2022/04/28 15:08:43;;;;;;;8.90;1.88;;;;;;;;;;5018587;28;20097;-59
2022/04/28 15:11:10;;;;;;;7.70;1.80;;;;;;;;;;5012809;28;20100;-59
2022/04/28 15:13:36;;;;;;;7.07;1.83;;;;;;;;;;5023280;28;20052;-59
2022/04/28 15:16:02;;;;;;;11.80;2.10;;;;;;;;;;5024504;28;20042;-60
2022/04/28 15:18:29;;;;;;;5.82;1.77;;;;;;;;;;5027042;28;20048;-58
2022/04/28 15:20:55;;;;;;;10.98;2.00;;;;;;;;;;5022446;28;20529;-60
2022/04/28 15:23:21;;;;;;;8.73;1.42;;;;;;;;;;5022885;28;20045;-59